createdAt,value
2018-04-08T00:00:24.249Z,14.80
2018-04-08T00:01:24.267Z,14.70
2018-04-08T00:02:24.281Z,14.67
2018-04-08T00:03:24.316Z,14.67
2018-04-08T00:04:24.330Z,14.64
2018-04-08T00:05:24.353Z,14.67
2018-04-08T00:06:24.367Z,14.61
2018-04-08T00:07:24.393Z,14.63
2018-04-08T00:08:24.415Z,14.63
2018-04-08T00:09:24.440Z,14.63
2018-04-08T00:10:24.458Z,14.53
2018-04-08T00:11:24.481Z,14.51
2018-04-08T00:12:24.499Z,14.48
2018-04-08T00:13:24.527Z,14.48
2018-04-08T00:14:24.540Z,14.45
2018-04-08T00:15:24.565Z,14.44
2018-04-08T00:16:24.590Z,14.46
2018-04-08T00:17:24.610Z,14.46
2018-04-08T00:18:24.635Z,14.46
2018-04-08T00:19:24.653Z,14.53
2018-04-08T00:20:24.676Z,14.44
2018-04-08T00:21:24.696Z,14.46
2018-04-08T00:22:24.723Z,14.44
2018-04-08T00:23:24.735Z,14.33
2018-04-08T00:24:24.765Z,14.33
2018-04-08T00:25:24.780Z,14.30
2018-04-08T00:26:24.807Z,14.30
2018-04-08T00:27:24.829Z,14.34
2018-04-08T00:28:24.840Z,14.41
2018-04-08T00:29:24.869Z,14.39
2018-04-08T00:30:24.888Z,14.31
2018-04-08T00:31:24.912Z,14.28
2018-04-08T00:32:24.936Z,14.39
2018-04-08T00:33:24.959Z,14.34
2018-04-08T00:34:24.976Z,14.31
2018-04-08T00:35:25.002Z,14.30
2018-04-08T00:36:25.014Z,14.26
2018-04-08T00:37:25.042Z,14.24
2018-04-08T00:38:25.063Z,14.19
2018-04-08T00:39:25.087Z,14.13
2018-04-08T00:40:25.103Z,14.16
2018-04-08T00:41:25.121Z,14.05
2018-04-08T00:42:25.154Z,14.09
2018-04-08T00:43:25.170Z,14.11
2018-04-08T00:44:25.224Z,14.08
2018-04-08T00:45:25.209Z,14.19
2018-04-08T00:46:25.233Z,14.08
2018-04-08T00:47:25.253Z,14.15
2018-04-08T00:48:25.277Z,14.08
2018-04-08T00:49:25.292Z,14.08
2018-04-08T00:50:25.326Z,14.08
2018-04-08T00:51:25.336Z,14.11
2018-04-08T00:52:25.364Z,14.06
2018-04-08T00:53:25.385Z,14.03
2018-04-08T00:54:25.418Z,14.06
2018-04-08T00:55:25.426Z,14.12
2018-04-08T00:56:25.451Z,14.09
2018-04-08T00:57:25.473Z,14.11
2018-04-08T00:58:25.492Z,14.21
2018-04-08T00:59:25.542Z,14.19
2018-04-08T01:00:25.528Z,14.16
2018-04-08T01:01:25.549Z,14.19
2018-04-08T01:02:25.579Z,14.21
2018-04-08T01:03:25.593Z,14.12
2018-04-08T01:04:25.621Z,14.23
2018-04-08T01:05:25.638Z,14.20
2018-04-08T01:06:25.661Z,14.15
2018-04-08T01:07:25.680Z,14.15
2018-04-08T01:08:25.707Z,14.27
2018-04-08T01:09:25.722Z,14.24
2018-04-08T01:10:25.741Z,14.16
2018-04-08T01:11:25.766Z,14.19
2018-04-08T01:12:25.784Z,14.24
2018-04-08T01:13:25.811Z,14.21
2018-04-08T01:14:25.830Z,14.11
2018-04-08T01:15:25.848Z,14.09
2018-04-08T01:16:25.877Z,14.06
2018-04-08T01:17:25.894Z,14.05
2018-04-08T01:18:25.917Z,14.08
2018-04-08T01:19:25.936Z,14.03
2018-04-08T01:20:25.960Z,14.05
2018-04-08T01:21:25.976Z,14.11
2018-04-08T01:22:26.007Z,14.01
2018-04-08T01:23:26.019Z,14.01
2018-04-08T01:24:26.052Z,13.99
2018-04-08T01:25:26.067Z,13.97
2018-04-08T01:26:26.090Z,13.94
2018-04-08T01:27:26.104Z,13.86
2018-04-08T01:28:26.127Z,13.86
2018-04-08T01:29:26.147Z,13.88
2018-04-08T01:30:26.172Z,13.84
2018-04-08T01:31:26.192Z,13.79
2018-04-08T01:32:26.216Z,13.78
2018-04-08T01:33:26.230Z,13.79
2018-04-08T01:34:26.260Z,13.76
2018-04-08T01:35:26.274Z,13.73
2018-04-08T01:36:26.302Z,13.81
2018-04-08T01:37:26.319Z,13.81
2018-04-08T01:38:26.343Z,13.72
2018-04-08T01:39:26.368Z,13.72
2018-04-08T01:40:26.384Z,13.70
2018-04-08T01:41:26.402Z,13.68
2018-04-08T01:42:26.428Z,13.60
2018-04-08T01:43:26.446Z,13.62
2018-04-08T01:44:26.464Z,13.62
2018-04-08T01:45:26.490Z,13.58
2018-04-08T01:46:26.510Z,13.58
2018-04-08T01:47:26.528Z,13.70
2018-04-08T01:48:26.559Z,13.68
2018-04-08T01:49:26.579Z,13.73
2018-04-08T01:50:26.591Z,13.78
2018-04-08T01:51:26.615Z,13.76
2018-04-08T01:52:26.639Z,13.73
2018-04-08T01:53:26.661Z,13.76
2018-04-08T01:54:26.678Z,13.86
2018-04-08T01:55:26.697Z,13.86
2018-04-08T01:56:26.725Z,13.75
2018-04-08T01:57:26.744Z,13.79
2018-04-08T01:58:26.762Z,13.76
2018-04-08T01:59:26.786Z,13.81
2018-04-08T02:00:26.812Z,13.78
2018-04-08T02:01:26.832Z,13.86
2018-04-08T02:02:26.852Z,13.84
2018-04-08T02:03:26.875Z,13.95
2018-04-08T02:04:26.886Z,13.90
2018-04-08T02:05:26.907Z,13.97
2018-04-08T02:06:26.937Z,13.94
2018-04-08T02:07:26.955Z,13.93
2018-04-08T02:08:26.973Z,13.87
2018-04-08T02:09:26.995Z,13.83
2018-04-08T02:10:27.019Z,13.78
2018-04-08T02:11:27.042Z,13.84
2018-04-08T02:12:27.054Z,13.81
2018-04-08T02:13:27.134Z,13.72
2018-04-08T02:14:27.108Z,13.70
2018-04-08T02:15:27.122Z,13.57
2018-04-08T02:16:27.138Z,13.58
2018-04-08T02:17:27.163Z,13.62
2018-04-08T02:18:27.188Z,13.55
2018-04-08T02:19:27.231Z,13.44
2018-04-08T02:20:27.225Z,13.42
2018-04-08T02:21:27.249Z,13.48
2018-04-08T02:22:27.264Z,13.39
2018-04-08T02:23:27.288Z,13.36
2018-04-08T02:24:27.318Z,13.42
2018-04-08T02:25:27.333Z,13.39
2018-04-08T02:26:27.351Z,13.37
2018-04-08T02:27:27.369Z,13.40
2018-04-08T02:28:27.398Z,13.47
2018-04-08T02:29:27.411Z,13.42
2018-04-08T02:30:27.441Z,13.36
2018-04-08T02:31:27.461Z,13.35
2018-04-08T02:32:27.481Z,13.37
2018-04-08T02:33:27.503Z,13.39
2018-04-08T02:34:27.517Z,13.36
2018-04-08T02:35:27.540Z,13.27
2018-04-08T02:36:27.563Z,13.37
2018-04-08T02:37:27.579Z,13.32
2018-04-08T02:38:27.608Z,13.31
2018-04-08T02:39:27.621Z,13.32
2018-04-08T02:40:27.657Z,13.25
2018-04-08T02:41:27.665Z,13.28
2018-04-08T02:42:27.689Z,13.28
2018-04-08T02:43:27.707Z,13.29
2018-04-08T02:44:27.730Z,13.27
2018-04-08T02:45:27.749Z,13.19
2018-04-08T02:46:27.774Z,13.20
2018-04-08T02:47:27.791Z,13.20
2018-04-08T02:48:27.814Z,13.19
2018-04-08T02:49:27.828Z,13.13
2018-04-08T02:50:27.866Z,13.11
2018-04-08T02:51:27.872Z,13.10
2018-04-08T02:52:27.900Z,13.09
2018-04-08T02:53:27.915Z,13.02
2018-04-08T02:54:27.939Z,12.99
2018-04-08T02:55:27.957Z,13.01
2018-04-08T02:56:27.979Z,13.01
2018-04-08T02:57:27.997Z,12.98
2018-04-08T02:58:28.026Z,12.89
2018-04-08T02:59:28.037Z,12.95
2018-04-08T03:00:28.067Z,13.09
2018-04-08T03:01:28.082Z,12.94
2018-04-08T03:02:28.108Z,12.86
2018-04-08T03:03:28.124Z,12.92
2018-04-08T03:04:28.150Z,12.84
2018-04-08T03:05:28.165Z,12.83
2018-04-08T03:06:28.189Z,12.86
2018-04-08T03:07:28.208Z,12.92
2018-04-08T03:08:28.230Z,12.96
2018-04-08T03:09:28.252Z,12.94
2018-04-08T03:10:28.269Z,12.94
2018-04-08T03:11:28.289Z,12.94
2018-04-08T03:12:28.315Z,12.92
2018-04-08T03:13:28.337Z,12.98
2018-04-08T03:14:28.350Z,12.95
2018-04-08T03:15:28.373Z,12.83
2018-04-08T03:16:28.395Z,12.96
2018-04-08T03:17:28.420Z,12.94
2018-04-08T03:18:28.437Z,12.86
2018-04-08T03:19:28.457Z,12.94
2018-04-08T03:20:28.474Z,12.92
2018-04-08T03:21:28.495Z,12.95
2018-04-08T03:22:28.524Z,12.95
2018-04-08T03:23:28.541Z,12.83
2018-04-08T03:24:28.558Z,12.83
2018-04-08T03:25:28.584Z,12.92
2018-04-08T03:26:28.606Z,12.91
2018-04-08T03:27:28.622Z,12.92
2018-04-08T03:28:28.645Z,12.92
2018-04-08T03:29:28.663Z,12.84
2018-04-08T03:30:28.690Z,12.89
2018-04-08T03:31:28.702Z,12.88
2018-04-08T03:32:28.754Z,12.86
2018-04-08T03:33:28.742Z,12.86
2018-04-08T03:34:28.767Z,12.88
2018-04-08T03:35:28.791Z,12.88
2018-04-08T03:36:28.812Z,12.80
2018-04-08T03:37:28.834Z,12.77
2018-04-08T03:38:28.845Z,12.91
2018-04-08T03:39:28.870Z,12.86
2018-04-08T03:40:28.892Z,12.94
2018-04-08T03:41:28.918Z,12.84
2018-04-08T03:42:28.933Z,12.96
2018-04-08T03:43:28.956Z,12.91
2018-04-08T03:44:28.972Z,12.95
2018-04-08T03:45:29.002Z,12.86
2018-04-08T03:46:29.010Z,12.94
2018-04-08T03:47:29.040Z,12.92
2018-04-08T03:48:29.059Z,12.94
2018-04-08T03:49:29.077Z,12.86
2018-04-08T03:50:29.100Z,12.95
2018-04-08T03:51:29.119Z,12.92
2018-04-08T03:52:29.141Z,12.94
2018-04-08T03:53:29.154Z,12.84
2018-04-08T03:54:29.184Z,12.95
2018-04-08T03:55:29.196Z,12.95
2018-04-08T03:56:29.225Z,12.96
2018-04-08T03:57:29.241Z,12.95
2018-04-08T03:58:29.265Z,12.95
2018-04-08T03:59:29.288Z,12.98
2018-04-08T04:00:29.304Z,12.95
2018-04-08T04:01:29.321Z,12.96
2018-04-08T04:02:29.350Z,12.95
2018-04-08T04:03:29.368Z,12.83
2018-04-08T04:04:29.386Z,12.84
2018-04-08T04:05:29.403Z,12.83
2018-04-08T04:06:29.435Z,12.95
2018-04-08T04:07:29.447Z,12.92
2018-04-08T04:08:29.473Z,12.94
2018-04-08T04:09:29.489Z,12.94
2018-04-08T04:10:29.513Z,13.01
2018-04-08T04:11:29.531Z,12.98
2018-04-08T04:12:29.554Z,12.89
2018-04-08T04:13:29.573Z,12.94
2018-04-08T04:14:29.589Z,12.91
2018-04-08T04:15:29.621Z,12.92
2018-04-08T04:16:29.629Z,12.99
2018-04-08T04:17:29.657Z,12.99
2018-04-08T04:18:29.676Z,12.96
2018-04-08T04:19:29.696Z,13.03
2018-04-08T04:20:29.714Z,12.96
2018-04-08T04:21:29.733Z,12.99
2018-04-08T04:22:29.762Z,13.01
2018-04-08T04:23:29.775Z,12.95
2018-04-08T04:24:29.803Z,12.94
2018-04-08T04:25:29.819Z,12.94
2018-04-08T04:26:29.844Z,12.96
2018-04-08T04:27:29.859Z,12.89
2018-04-08T04:28:29.882Z,12.94
2018-04-08T04:29:29.903Z,12.96
2018-04-08T04:30:29.927Z,12.94
2018-04-08T04:31:29.940Z,12.92
2018-04-08T04:32:29.970Z,12.92
2018-04-08T04:33:29.982Z,12.92
2018-04-08T04:34:30.007Z,12.94
2018-04-08T04:35:30.031Z,12.81
2018-04-08T04:36:30.047Z,12.80
2018-04-08T04:37:30.070Z,12.83
2018-04-08T04:38:30.089Z,12.86
2018-04-08T04:39:30.107Z,12.84
2018-04-08T04:40:30.130Z,12.81
2018-04-08T04:41:30.151Z,12.74
2018-04-08T04:42:30.170Z,12.78
2018-04-08T04:43:30.191Z,12.69
2018-04-08T04:44:30.216Z,12.80
2018-04-08T04:45:30.254Z,12.74
2018-04-08T04:46:30.254Z,12.71
2018-04-08T04:47:30.277Z,12.66
2018-04-08T04:48:30.289Z,12.69
2018-04-08T04:49:30.311Z,12.74
2018-04-08T04:50:30.334Z,12.69
2018-04-08T04:51:30.353Z,12.69
2018-04-08T04:52:30.373Z,12.69
2018-04-08T04:53:30.392Z,12.74
2018-04-08T04:54:30.423Z,12.66
2018-04-08T04:55:30.436Z,12.66
2018-04-08T04:56:30.461Z,12.70
2018-04-08T04:57:30.477Z,12.73
2018-04-08T04:58:30.500Z,12.83
2018-04-08T04:59:30.519Z,12.86
2018-04-08T05:00:30.541Z,12.80
2018-04-08T05:01:30.562Z,12.78
2018-04-08T05:02:30.581Z,12.77
2018-04-08T05:03:30.604Z,12.95
2018-04-08T05:04:30.623Z,12.92
2018-04-08T05:05:30.652Z,12.95
2018-04-08T05:06:30.666Z,12.94
2018-04-08T05:07:30.683Z,12.96
2018-04-08T05:08:30.700Z,12.94
2018-04-08T05:09:30.724Z,12.94
2018-04-08T05:10:30.747Z,12.89
2018-04-08T05:11:30.766Z,12.96
2018-04-08T05:12:30.788Z,13.01
2018-04-08T05:13:30.805Z,12.99
2018-04-08T05:14:30.833Z,13.06
2018-04-08T05:15:30.845Z,13.06
2018-04-08T05:16:30.873Z,13.13
2018-04-08T05:17:30.895Z,13.14
2018-04-08T05:18:30.907Z,13.11
2018-04-08T05:19:30.935Z,13.10
2018-04-08T05:20:30.954Z,13.14
2018-04-08T05:21:30.974Z,13.11
2018-04-08T05:22:30.991Z,13.16
2018-04-08T05:23:31.011Z,13.17
2018-04-08T05:24:31.034Z,13.20
2018-04-08T05:25:31.057Z,13.29
2018-04-08T05:26:31.075Z,13.40
2018-04-08T05:27:31.098Z,13.45
2018-04-08T05:28:31.117Z,13.42
2018-04-08T05:29:31.145Z,13.39
2018-04-08T05:30:31.156Z,13.40
2018-04-08T05:31:31.188Z,13.50
2018-04-08T05:32:31.195Z,13.44
2018-04-08T05:33:31.223Z,13.51
2018-04-08T05:34:31.246Z,13.58
2018-04-08T05:35:31.259Z,13.73
2018-04-08T05:36:31.290Z,13.70
2018-04-08T05:37:31.304Z,13.69
2018-04-08T05:38:31.327Z,13.68
2018-04-08T05:39:31.355Z,13.75
2018-04-08T05:40:31.369Z,13.70
2018-04-08T05:41:31.387Z,13.78
2018-04-08T05:42:31.414Z,13.72
2018-04-08T05:43:31.431Z,13.78
2018-04-08T05:44:31.451Z,13.75
2018-04-08T05:45:31.468Z,13.86
2018-04-08T05:46:31.496Z,13.87
2018-04-08T05:47:31.510Z,13.86
2018-04-08T05:48:31.537Z,13.91
2018-04-08T05:49:31.554Z,14.01
2018-04-08T05:50:31.578Z,13.99
2018-04-08T05:51:31.597Z,13.97
2018-04-08T05:52:31.613Z,14.02
2018-04-08T05:53:31.635Z,14.02
2018-04-08T05:54:31.658Z,14.06
2018-04-08T05:55:31.679Z,14.03
2018-04-08T05:56:31.704Z,13.97
2018-04-08T05:57:31.723Z,14.02
2018-04-08T05:58:31.743Z,14.01
2018-04-08T05:59:31.765Z,13.97
2018-04-08T06:00:31.781Z,13.83
2018-04-08T06:01:31.810Z,13.78
2018-04-08T06:02:31.823Z,13.79
2018-04-08T06:03:31.853Z,13.76
2018-04-08T06:04:31.865Z,13.72
2018-04-08T06:05:31.894Z,13.73
2018-04-08T06:06:31.910Z,13.76
2018-04-08T06:07:31.929Z,13.84
2018-04-08T06:08:31.954Z,13.84
2018-04-08T06:09:31.979Z,13.88
2018-04-08T06:10:31.998Z,13.93
2018-04-08T06:11:32.019Z,13.86
2018-04-08T06:12:32.039Z,13.76
2018-04-08T06:13:32.061Z,13.86
2018-04-08T06:14:32.081Z,13.94
2018-04-08T06:15:32.108Z,13.88
2018-04-08T06:16:32.117Z,13.78
2018-04-08T06:17:32.179Z,13.83
2018-04-08T06:18:32.173Z,13.90
2018-04-08T06:19:32.186Z,13.78
2018-04-08T06:20:32.205Z,13.78
2018-04-08T06:21:32.226Z,13.78
2018-04-08T06:22:32.248Z,13.79
2018-04-08T06:23:32.268Z,13.83
2018-04-08T06:24:32.290Z,13.94
2018-04-08T06:25:32.307Z,13.99
2018-04-08T06:26:32.335Z,14.01
2018-04-08T06:27:32.349Z,14.11
2018-04-08T06:28:32.380Z,14.12
2018-04-08T06:29:32.396Z,14.16
2018-04-08T06:30:32.414Z,14.19
2018-04-08T06:31:32.441Z,14.15
2018-04-08T06:32:32.456Z,14.28
2018-04-08T06:33:32.482Z,14.33
2018-04-08T06:34:32.496Z,14.45
2018-04-08T06:35:32.527Z,14.46
2018-04-08T06:36:32.538Z,14.42
2018-04-08T06:37:32.559Z,14.60
2018-04-08T06:38:32.589Z,14.59
2018-04-08T06:39:32.602Z,14.69
2018-04-08T06:40:32.631Z,14.71
2018-04-08T06:41:32.647Z,14.71
2018-04-08T06:42:32.672Z,14.74
2018-04-08T06:43:32.705Z,14.70
2018-04-08T06:44:32.714Z,14.75
2018-04-08T06:45:32.732Z,14.83
2018-04-08T06:46:32.757Z,14.83
2018-04-08T06:47:32.781Z,14.82
2018-04-08T06:48:32.799Z,14.86
2018-04-08T06:49:32.816Z,14.90
2018-04-08T06:50:32.845Z,15.02
2018-04-08T06:51:32.866Z,15.07
2018-04-08T06:52:32.883Z,15.04
2018-04-08T06:53:32.909Z,15.08
2018-04-08T06:54:32.927Z,15.13
2018-04-08T06:55:32.951Z,15.18
2018-04-08T06:56:32.966Z,15.07
2018-04-08T06:57:32.987Z,15.25
2018-04-08T06:58:33.018Z,15.13
2018-04-08T06:59:33.042Z,15.19
2018-04-08T07:00:33.053Z,15.22
2018-04-08T07:01:33.078Z,15.31
2018-04-08T07:02:33.097Z,15.30
2018-04-08T07:03:33.116Z,15.41
2018-04-08T07:04:33.156Z,15.44
2018-04-08T07:05:33.167Z,15.45
2018-04-08T07:06:33.180Z,15.55
2018-04-08T07:07:33.208Z,15.59
2018-04-08T07:08:33.241Z,15.73
2018-04-08T07:09:33.248Z,15.74
2018-04-08T07:10:33.275Z,15.80
2018-04-08T07:11:33.291Z,15.88
2018-04-08T07:12:33.318Z,15.89
2018-04-08T07:13:33.339Z,15.91
2018-04-08T07:14:33.354Z,15.93
2018-04-08T07:15:33.383Z,15.92
2018-04-08T07:16:33.403Z,15.96
2018-04-08T07:17:33.422Z,15.93
2018-04-08T07:18:33.580Z,15.84
2018-04-08T07:19:33.467Z,15.93
2018-04-08T07:20:33.491Z,15.99
2018-04-08T07:21:33.511Z,16.06
2018-04-08T07:22:33.538Z,16.02
2018-04-08T07:23:33.552Z,15.96
2018-04-08T07:24:33.603Z,16.06
2018-04-08T07:25:33.598Z,16.08
2018-04-08T07:26:33.624Z,16.18
2018-04-08T07:27:33.641Z,16.06
2018-04-08T07:28:33.667Z,16.25
2018-04-08T07:29:33.684Z,16.29
2018-04-08T07:30:33.714Z,16.44
2018-04-08T07:31:33.735Z,16.54
2018-04-08T07:32:33.758Z,16.67
2018-04-08T07:33:33.772Z,16.70
2018-04-08T07:34:33.803Z,16.81
2018-04-08T07:35:33.817Z,16.94
2018-04-08T07:36:33.847Z,16.90
2018-04-08T07:37:33.863Z,16.91
2018-04-08T07:38:33.889Z,16.97
2018-04-08T07:39:33.910Z,16.99
2018-04-08T07:40:33.935Z,17.13
2018-04-08T07:41:33.952Z,17.21
2018-04-08T07:42:33.981Z,17.36
2018-04-08T07:43:33.998Z,17.98
2018-04-08T07:44:34.028Z,18.75
2018-04-08T07:45:34.049Z,19.17
2018-04-08T07:46:34.071Z,19.67
2018-04-08T07:47:34.095Z,19.63
2018-04-08T07:48:34.125Z,19.60
2018-04-08T07:49:34.139Z,19.95
2018-04-08T07:50:34.163Z,20.23
2018-04-08T07:51:34.182Z,19.83
2018-04-08T07:52:34.208Z,19.86
2018-04-08T07:53:34.227Z,19.83
2018-04-08T07:54:34.260Z,19.55
2018-04-08T07:55:34.275Z,19.74
2018-04-08T07:56:34.306Z,19.90
2018-04-08T07:57:34.330Z,19.87
2018-04-08T07:58:34.347Z,20.04
2018-04-08T07:59:34.374Z,20.20
2018-04-08T08:00:34.396Z,20.37
2018-04-08T08:01:34.422Z,20.15
2018-04-08T08:02:34.453Z,19.72
2018-04-08T08:03:34.475Z,19.56
2018-04-08T08:04:34.498Z,19.27
2018-04-08T08:05:34.519Z,19.10
2018-04-08T08:06:34.553Z,19.19
2018-04-08T08:07:34.574Z,19.23
2018-04-08T08:08:34.596Z,19.40
2018-04-08T08:09:34.622Z,19.63
2018-04-08T08:10:34.651Z,19.61
2018-04-08T08:11:34.678Z,19.71
2018-04-08T08:12:34.695Z,19.72
2018-04-08T08:13:34.719Z,19.78
2018-04-08T08:14:34.753Z,19.93
2018-04-08T08:15:34.778Z,20.19
2018-04-08T08:16:34.802Z,20.60
2018-04-08T08:17:34.829Z,20.98
2018-04-08T08:18:34.846Z,21.56
2018-04-08T08:19:34.873Z,21.78
2018-04-08T08:20:34.902Z,22.05
2018-04-08T08:21:34.930Z,22.48
2018-04-08T08:22:34.947Z,22.33
2018-04-08T08:23:35.023Z,22.55
2018-04-08T08:24:35.005Z,22.89
2018-04-08T08:25:35.031Z,23.28
2018-04-08T08:26:35.056Z,23.42
2018-04-08T08:27:35.079Z,22.99
2018-04-08T08:28:35.113Z,22.44
2018-04-08T08:29:35.139Z,21.93
2018-04-08T08:30:35.162Z,21.80
2018-04-08T08:31:35.192Z,21.86
2018-04-08T08:32:35.215Z,22.05
2018-04-08T08:33:35.250Z,22.67
2018-04-08T08:34:35.267Z,23.37
2018-04-08T08:35:35.299Z,23.48
2018-04-08T08:36:35.322Z,23.55
2018-04-08T08:37:35.360Z,22.70
2018-04-08T08:38:35.379Z,21.76
2018-04-08T08:39:35.415Z,21.15
2018-04-08T08:40:35.435Z,21.15
2018-04-08T08:41:35.470Z,21.18
2018-04-08T08:42:35.494Z,21.51
2018-04-08T08:43:35.549Z,22.38
2018-04-08T08:44:35.550Z,23.03
2018-04-08T08:45:35.584Z,23.29
2018-04-08T08:46:35.609Z,23.70
2018-04-08T08:47:35.639Z,23.96
2018-04-08T08:48:35.660Z,23.85
2018-04-08T08:49:35.687Z,24.33
2018-04-08T08:50:35.724Z,24.45
2018-04-08T08:51:35.745Z,25.09
2018-04-08T08:52:35.775Z,25.22
2018-04-08T08:53:35.801Z,25.39
2018-04-08T08:54:35.838Z,25.26
2018-04-08T08:55:35.865Z,25.52
2018-04-08T08:56:35.889Z,25.89
2018-04-08T08:57:35.921Z,25.97
2018-04-08T08:58:35.950Z,26.26
2018-04-08T08:59:35.986Z,25.97
2018-04-08T09:00:36.008Z,25.71
2018-04-08T09:01:36.040Z,25.60
2018-04-08T09:02:36.074Z,24.94
2018-04-08T09:03:36.096Z,25.04
2018-04-08T09:04:36.126Z,24.80
2018-04-08T09:05:36.158Z,24.80
2018-04-08T09:06:36.250Z,24.85
2018-04-08T09:07:36.217Z,24.70
2018-04-08T09:08:36.251Z,25.44
2018-04-08T09:09:36.285Z,26.07
2018-04-08T09:10:36.312Z,25.64
2018-04-08T09:11:36.345Z,25.52
2018-04-08T09:12:36.368Z,25.27
2018-04-08T09:13:36.449Z,25.75
2018-04-08T09:14:36.433Z,26.23
2018-04-08T09:15:36.464Z,26.49
2018-04-08T09:16:36.492Z,26.35
2018-04-08T09:17:36.529Z,26.78
2018-04-08T09:18:36.551Z,26.94
2018-04-08T09:19:36.591Z,27.28
2018-04-08T09:20:36.618Z,27.51
2018-04-08T09:21:36.650Z,27.69
2018-04-08T09:22:36.684Z,27.81
2018-04-08T09:23:36.712Z,27.21
2018-04-08T09:24:36.739Z,26.24
2018-04-08T09:25:36.768Z,25.86
2018-04-08T09:26:36.809Z,25.47
2018-04-08T09:27:36.832Z,25.11
2018-04-08T09:28:36.875Z,24.82
2018-04-08T09:29:36.917Z,24.46
2018-04-08T09:30:36.932Z,24.36
2018-04-08T09:31:36.959Z,24.03
2018-04-08T09:32:36.996Z,23.90
2018-04-08T09:33:37.022Z,23.78
2018-04-08T09:34:37.053Z,24.00
2018-04-08T09:35:37.087Z,23.96
2018-04-08T09:36:37.114Z,23.93
2018-04-08T09:37:37.150Z,23.90
2018-04-08T09:38:37.173Z,23.89
2018-04-08T09:39:37.207Z,23.96
2018-04-08T09:40:37.235Z,24.22
2018-04-08T09:41:37.267Z,24.80
2018-04-08T09:42:37.300Z,25.14
2018-04-08T09:43:37.327Z,25.17
2018-04-08T09:44:37.362Z,25.48
2018-04-08T09:45:37.388Z,25.51
2018-04-08T09:46:37.421Z,25.26
2018-04-08T09:47:37.443Z,25.17
2018-04-08T09:48:37.480Z,25.29
2018-04-08T09:49:37.510Z,25.32
2018-04-08T09:50:37.538Z,25.48
2018-04-08T09:51:37.573Z,25.82
2018-04-08T09:52:37.591Z,26.16
2018-04-08T09:53:37.620Z,26.59
2018-04-08T09:54:37.665Z,27.08
2018-04-08T09:55:37.680Z,27.23
2018-04-08T09:56:37.713Z,27.36
2018-04-08T09:57:37.741Z,28.23
2018-04-08T09:58:37.779Z,28.53
2018-04-08T09:59:37.801Z,28.82
2018-04-08T10:00:37.838Z,28.88
2018-04-08T10:01:37.864Z,29.15
2018-04-08T10:02:37.898Z,29.47
2018-04-08T10:03:37.926Z,29.47
2018-04-08T10:04:37.962Z,29.30
2018-04-08T10:05:38.060Z,29.24
2018-04-08T10:06:38.019Z,29.03
2018-04-08T10:07:38.054Z,28.80
2018-04-08T10:08:38.089Z,28.95
2018-04-08T10:09:38.118Z,28.78
2018-04-08T10:10:38.142Z,29.17
2018-04-08T10:11:38.177Z,29.48
2018-04-08T10:12:38.206Z,29.17
2018-04-08T10:13:38.240Z,29.35
2018-04-08T10:14:38.274Z,29.14
2018-04-08T10:15:38.305Z,29.15
2018-04-08T10:16:38.340Z,28.91
2018-04-08T10:17:38.380Z,28.14
2018-04-08T10:18:38.408Z,27.66
2018-04-08T10:19:38.432Z,27.30
2018-04-08T10:20:38.474Z,26.94
2018-04-08T10:21:38.511Z,26.72
2018-04-08T10:22:38.531Z,26.56
2018-04-08T10:23:38.567Z,26.42
2018-04-08T10:24:38.600Z,26.52
2018-04-08T10:25:38.633Z,26.86
2018-04-08T10:26:38.667Z,27.11
2018-04-08T10:27:38.700Z,27.18
2018-04-08T10:28:38.731Z,27.08
2018-04-08T10:29:38.760Z,26.78
2018-04-08T10:30:38.790Z,26.57
2018-04-08T10:31:38.819Z,26.41
2018-04-08T10:32:38.857Z,26.42
2018-04-08T10:33:38.890Z,26.64
2018-04-08T10:34:38.913Z,26.86
2018-04-08T10:35:38.950Z,27.04
2018-04-08T10:36:38.982Z,27.43
2018-04-08T10:37:39.013Z,27.48
2018-04-08T10:38:39.049Z,27.59
2018-04-08T10:39:39.076Z,27.16
2018-04-08T10:40:39.104Z,26.71
2018-04-08T10:41:39.135Z,26.60
2018-04-08T10:42:39.168Z,26.56
2018-04-08T10:43:39.201Z,26.41
2018-04-08T10:44:39.228Z,26.23
2018-04-08T10:45:39.258Z,26.20
2018-04-08T10:46:39.293Z,26.09
2018-04-08T10:47:39.326Z,25.86
2018-04-08T10:48:39.347Z,25.76
2018-04-08T10:49:39.377Z,25.79
2018-04-08T10:50:39.416Z,25.57
2018-04-08T10:51:39.470Z,25.41
2018-04-08T10:52:39.514Z,25.49
2018-04-08T10:53:39.504Z,25.54
2018-04-08T10:54:39.528Z,25.54
2018-04-08T10:55:39.561Z,25.57
2018-04-08T10:56:39.594Z,25.66
2018-04-08T10:57:39.622Z,25.54
2018-04-08T10:58:39.653Z,25.69
2018-04-08T10:59:39.678Z,25.59
2018-04-08T11:00:39.715Z,25.69
2018-04-08T11:01:39.742Z,25.75
2018-04-08T11:02:39.768Z,25.75
2018-04-08T11:03:39.797Z,25.71
2018-04-08T11:04:39.833Z,25.86
2018-04-08T11:05:39.862Z,25.76
2018-04-08T11:06:39.883Z,25.56
2018-04-08T11:07:39.915Z,25.34
2018-04-08T11:08:39.946Z,25.42
2018-04-08T11:09:39.970Z,25.47
2018-04-08T11:10:40.009Z,25.29
2018-04-08T11:11:40.031Z,25.42
2018-04-08T11:12:40.065Z,25.67
2018-04-08T11:13:40.108Z,26.04
2018-04-08T11:14:40.125Z,26.63
2018-04-08T11:15:40.148Z,26.96
2018-04-08T11:16:40.178Z,27.71
2018-04-08T11:17:40.204Z,28.23
2018-04-08T11:18:40.237Z,28.92
2018-04-08T11:19:40.263Z,29.58
2018-04-08T11:20:40.295Z,30.11
2018-04-08T11:21:40.318Z,30.11
2018-04-08T11:22:40.357Z,29.97
2018-04-08T11:23:40.377Z,29.91
2018-04-08T11:24:40.414Z,29.77
2018-04-08T11:25:40.439Z,30.35
2018-04-08T11:26:40.471Z,30.81
2018-04-08T11:27:40.500Z,30.84
2018-04-08T11:28:40.532Z,30.79
2018-04-08T11:29:40.560Z,30.26
2018-04-08T11:30:40.599Z,30.02
2018-04-08T11:31:40.621Z,30.28
2018-04-08T11:32:40.662Z,30.34
2018-04-08T11:33:40.683Z,30.14
2018-04-08T11:34:40.728Z,30.10
2018-04-08T11:35:40.747Z,29.95
2018-04-08T11:36:40.785Z,30.09
2018-04-08T11:37:40.810Z,30.34
2018-04-08T11:38:40.848Z,30.37
2018-04-08T11:39:40.877Z,30.64
2018-04-08T11:40:40.911Z,30.69
2018-04-08T11:41:40.945Z,31.01
2018-04-08T11:42:40.980Z,31.06
2018-04-08T11:43:41.010Z,30.81
2018-04-08T11:44:41.040Z,30.47
2018-04-08T11:45:41.070Z,30.73
2018-04-08T11:46:41.107Z,30.99
2018-04-08T11:47:41.145Z,30.93
2018-04-08T11:48:41.166Z,30.85
2018-04-08T11:49:41.208Z,30.66
2018-04-08T11:50:41.237Z,30.29
2018-04-08T11:51:41.270Z,29.52
2018-04-08T11:52:41.305Z,28.97
2018-04-08T11:53:41.339Z,28.39
2018-04-08T11:54:41.368Z,28.06
2018-04-08T11:55:41.399Z,27.96
2018-04-08T11:56:41.439Z,27.91
2018-04-08T11:57:41.467Z,27.90
2018-04-08T11:58:41.498Z,27.80
2018-04-08T11:59:41.533Z,27.91
2018-04-08T12:00:41.575Z,28.39
2018-04-08T12:01:41.599Z,28.33
2018-04-08T12:02:41.631Z,28.36
2018-04-08T12:03:41.660Z,28.45
2018-04-08T12:04:41.700Z,28.72
2018-04-08T12:05:41.723Z,28.76
2018-04-08T12:06:41.763Z,29.39
2018-04-08T12:07:41.795Z,29.30
2018-04-08T12:08:41.827Z,29.97
2018-04-08T12:09:41.854Z,30.54
2018-04-08T12:10:41.888Z,31.12
2018-04-08T12:11:41.918Z,31.23
2018-04-08T12:12:41.951Z,31.12
2018-04-08T12:13:41.978Z,31.33
2018-04-08T12:14:42.018Z,31.62
2018-04-08T12:15:42.044Z,32.09
2018-04-08T12:16:42.082Z,32.17
2018-04-08T12:17:42.108Z,32.47
2018-04-08T12:18:42.145Z,32.00
2018-04-08T12:19:42.175Z,32.27
2018-04-08T12:20:42.214Z,32.16
2018-04-08T12:21:42.248Z,32.16
2018-04-08T12:22:42.269Z,32.16
2018-04-08T12:23:42.309Z,31.94
2018-04-08T12:24:42.334Z,32.30
2018-04-08T12:25:42.373Z,32.30
2018-04-08T12:26:42.403Z,32.37
2018-04-08T12:27:42.442Z,32.64
2018-04-08T12:28:42.466Z,32.38
2018-04-08T12:29:42.501Z,31.97
2018-04-08T12:30:42.538Z,32.06
2018-04-08T12:31:42.568Z,31.90
2018-04-08T12:32:42.603Z,31.91
2018-04-08T12:33:42.634Z,32.03
2018-04-08T12:34:42.673Z,31.86
2018-04-08T12:35:42.698Z,31.95
2018-04-08T12:36:42.782Z,31.95
2018-04-08T12:37:42.763Z,32.12
2018-04-08T12:38:42.805Z,32.19
2018-04-08T12:39:42.836Z,32.20
2018-04-08T12:40:42.865Z,32.23
2018-04-08T12:41:42.903Z,32.42
2018-04-08T12:42:42.938Z,32.54
2018-04-08T12:43:42.973Z,32.13
2018-04-08T12:44:42.996Z,31.75
2018-04-08T12:45:43.031Z,31.30
2018-04-08T12:46:43.072Z,31.30
2018-04-08T12:47:43.105Z,31.74
2018-04-08T12:48:43.134Z,31.91
2018-04-08T12:49:43.167Z,31.78
2018-04-08T12:50:43.205Z,31.80
2018-04-08T12:51:43.261Z,31.22
2018-04-08T12:52:43.265Z,30.91